Time;durP1;ratioP1;P1;durP2;ratioP2;P2;SDS_P1;SDS_P2;PMS_P1;PMS_P2;Temp;Humidity;BMP_temperature;BMP_pressure;BME280_temperature;BME280_humidity;BME280_pressure;Samples;Min_cycle;Max_cycle;Signal;HPM_P1;HPM_P2
2021/03/11 00:00:43;;;;;;;17.95;8.77;;;8.60;96.10;;;;;;5028658;28;20592;-79
2021/03/11 00:03:08;;;;;;;12.90;7.97;;;8.60;96.10;;;;;;5033144;28;20027;-82
2021/03/11 00:05:36;;;;;;;14.57;8.68;;;8.60;96.00;;;;;;5012907;28;20422;-79
2021/03/11 00:08:03;;;;;;;16.67;8.68;;;8.50;96.00;;;;;;5033343;28;20095;-82
2021/03/11 00:10:30;;;;;;;13.98;8.25;;;8.50;95.70;;;;;;5035939;28;20108;-80
2021/03/11 00:12:56;;;;;;;15.63;9.10;;;8.60;95.70;;;;;;5026712;28;20033;-79
2021/03/11 00:15:23;;;;;;;14.57;7.88;;;8.60;95.50;;;;;;5029399;28;20526;-82
2021/03/11 00:17:49;;;;;;;14.95;8.20;;;8.60;95.40;;;;;;5029840;28;20203;-80
2021/03/11 00:20:18;;;;;;;15.75;8.40;;;10.90;96.40;;;;;;5032763;28;20056;-80
2021/03/11 00:22:44;;;;;;;14.52;8.15;;;8.60;95.00;;;;;;5039880;28;21050;-80
2021/03/11 00:25:13;;;;;;;16.20;8.63;;;8.60;95.00;;;;;;5037094;28;20045;-79
2021/03/11 00:27:39;;;;;;;13.27;7.32;;;8.70;94.90;;;;;;5033715;28;20576;-78
2021/03/11 00:30:07;;;;;;;14.15;8.43;;;8.80;94.30;;;;;;5035531;28;20033;-81
2021/03/11 00:32:33;;;;;;;12.88;7.95;;;8.70;94.50;;;;;;5036401;28;20029;-82
2021/03/11 00:34:59;;;;;;;18.30;8.98;;;8.80;94.90;;;;;;5042798;28;20040;-81
2021/03/11 00:37:25;;;;;;;14.60;8.93;;;8.70;94.20;;;;;;5045522;28;20031;-80
2021/03/11 00:39:51;;;;;;;14.60;8.38;;;8.70;94.60;;;;;;5045232;28;20025;-81
2021/03/11 00:42:17;;;;;;;14.27;8.77;;;8.80;94.60;;;;;;5054893;28;20048;-77
2021/03/11 00:44:42;;;;;;;14.55;8.80;;;8.90;93.80;;;;;;5043173;28;20303;-82
2021/03/11 00:47:08;;;;;;;14.02;8.35;;;9.00;94.20;;;;;;5037512;28;20044;-82
2021/03/11 00:49:35;;;;;;;14.35;8.32;;;8.80;93.90;;;;;;5042939;28;20043;-78
2021/03/11 00:52:02;;;;;;;15.30;8.80;;;8.90;93.90;;;;;;5037919;28;20048;-79
2021/03/11 00:54:28;;;;;;;15.90;8.02;;;8.90;93.60;;;;;;5042354;28;20063;-80
2021/03/11 00:56:54;;;;;;;14.50;8.38;;;8.90;93.90;;;;;;5040897;28;20083;-82
2021/03/11 00:59:20;;;;;;;14.13;8.43;;;9.00;93.40;;;;;;5035243;28;20098;-81
2021/03/11 01:01:45;;;;;;;18.52;9.02;;;9.00;93.50;;;;;;5037660;28;20040;-80
2021/03/11 01:04:12;;;;;;;16.50;9.70;;;9.40;94.00;;;;;;5051531;28;20036;-84
2021/03/11 01:06:38;;;;;;;17.33;9.43;;;9.00;93.90;;;;;;5037671;28;20112;-82
2021/03/11 01:09:04;;;;;;;15.77;9.85;;;9.00;94.40;;;;;;5030406;28;20053;-80
2021/03/11 01:11:30;;;;;;;17.70;9.32;;;8.90;94.70;;;;;;5037138;28;20064;-82
2021/03/11 01:13:56;;;;;;;15.52;8.90;;;8.90;95.50;;;;;;5036310;28;20167;-82
2021/03/11 01:16:22;;;;;;;15.98;9.10;;;8.80;95.40;;;;;;5046574;28;20075;-79
2021/03/11 01:18:48;;;;;;;15.27;8.82;;;8.80;95.70;;;;;;5053700;28;20048;-80
2021/03/11 01:21:14;;;;;;;15.13;8.90;;;8.90;95.80;;;;;;5042583;28;20036;-83
2021/03/11 01:23:39;;;;;;;15.15;8.57;;;8.80;95.60;;;;;;5036810;28;20041;-84
2021/03/11 01:26:05;;;;;;;15.82;9.02;;;8.80;95.60;;;;;;5019038;28;20045;-79
2021/03/11 01:28:30;;;;;;;14.23;8.88;;;8.80;95.80;;;;;;5036363;28;20178;-80
2021/03/11 01:30:56;;;;;;;15.68;8.40;;;8.80;95.80;;;;;;5038862;28;20047;-82
2021/03/11 01:33:21;;;;;;;14.85;8.60;;;8.80;95.80;;;;;;5038313;28;20123;-81
2021/03/11 01:35:48;;;;;;;13.98;8.35;;;8.80;95.80;;;;;;5035136;28;20052;-83
2021/03/11 01:38:13;;;;;;;16.08;8.90;;;8.80;95.70;;;;;;5035672;28;21086;-82
2021/03/11 01:40:39;;;;;;;18.02;8.95;;;8.80;95.60;;;;;;5035361;28;20096;-77
2021/03/11 01:43:04;;;;;;;14.75;8.52;;;8.90;95.70;;;;;;5038404;28;20063;-80
2021/03/11 01:45:30;;;;;;;16.45;8.70;;;10.60;95.60;;;;;;5039324;28;20498;-78
2021/03/11 01:47:56;;;;;;;13.10;8.57;;;8.90;95.30;;;;;;5038077;28;20056;-79
2021/03/11 01:50:22;;;;;;;15.98;9.35;;;8.80;95.60;;;;;;5035606;28;20033;-81
2021/03/11 01:52:48;;;;;;;15.30;8.38;;;8.90;95.80;;;;;;5031251;28;20094;-80
2021/03/11 01:55:15;;;;;;;15.90;8.90;;;8.90;95.00;;;;;;5037821;28;20053;-81
2021/03/11 01:57:42;;;;;;;15.32;8.57;;;8.90;95.40;;;;;;5030004;28;20062;-82
2021/03/11 02:00:10;;;;;;;14.95;8.50;;;8.90;94.80;;;;;;5032018;28;20094;-83
2021/03/11 02:02:36;;;;;;;15.57;8.07;;;8.90;95.00;;;;;;5038634;28;21306;-80
2021/03/11 02:05:07;;;;;;;15.48;8.40;;;9.00;94.60;;;;;;5038294;28;20088;-83
2021/03/11 02:07:32;;;;;;;17.95;9.88;;;9.00;94.90;;;;;;5033927;28;20044;-83
2021/03/11 02:09:59;;;;;;;11.68;6.90;;;9.00;95.10;;;;;;5031469;28;20037;-82
2021/03/11 02:12:43;;;;;;;14.52;7.95;;;9.00;94.70;;;;;;5019439;28;20717;-80
2021/03/11 02:15:34;;;;;;;15.07;7.63;;;9.00;95.40;;;;;;5041315;28;20409;-80
2021/03/11 02:18:05;;;;;;;13.40;7.75;;;9.00;95.50;;;;;;5036538;28;20075;-80
2021/03/11 02:20:42;;;;;;;13.65;7.35;;;9.00;95.50;;;;;;5041272;28;20066;-82
2021/03/11 02:23:27;;;;;;;12.27;7.30;;;9.00;95.10;;;;;;5036777;28;20028;-81
2021/03/11 02:26:08;;;;;;;13.07;7.05;;;9.00;95.00;;;;;;5037972;28;20045;-79
2021/03/11 02:28:51;;;;;;;11.65;6.90;;;9.00;95.20;;;;;;5040054;28;20087;-83
2021/03/11 02:31:18;;;;;;;11.07;6.78;;;9.00;94.80;;;;;;5026464;28;20033;-80
2021/03/11 02:33:46;;;;;;;13.00;7.55;;;9.10;94.40;;;;;;5051479;28;20520;-79
2021/03/11 02:36:13;;;;;;;12.40;7.35;;;9.20;94.50;;;;;;5033792;28;20037;-80
2021/03/11 02:38:41;;;;;;;11.95;7.00;;;9.10;94.70;;;;;;5032384;28;20033;-82
2021/03/11 02:41:08;;;;;;;12.77;7.05;;;9.10;94.60;;;;;;5027546;28;20135;-82
2021/03/11 02:43:34;;;;;;;12.88;7.22;;;9.20;94.50;;;;;;5032304;28;20029;-80
2021/03/11 02:46:00;;;;;;;12.35;7.05;;;10.10;94.50;;;;;;5015846;28;20421;-85
2021/03/11 02:48:28;;;;;;;12.18;6.63;;;9.30;94.00;;;;;;5033018;28;20078;-80
2021/03/11 02:50:55;;;;;;;13.30;6.80;;;9.30;94.50;;;;;;5047804;28;20524;-81
2021/03/11 02:53:21;;;;;;;14.43;7.45;;;9.30;94.10;;;;;;5031222;28;20056;-80
2021/03/11 02:55:47;;;;;;;10.68;5.85;;;9.50;93.90;;;;;;5030627;28;20147;-83
2021/03/11 02:58:14;;;;;;;11.25;6.57;;;9.40;93.30;;;;;;5045670;28;20498;-80
2021/03/11 03:00:43;;;;;;;11.93;6.63;;;10.00;93.70;;;;;;5031812;28;20045;-81
2021/03/11 03:03:11;;;;;;;13.23;6.82;;;9.50;93.50;;;;;;5030751;28;20029;-81
2021/03/11 03:05:38;;;;;;;13.15;7.30;;;10.60;93.90;;;;;;5033666;28;20033;-82
2021/03/11 03:08:06;;;;;;;11.25;5.78;;;9.50;93.60;;;;;;5035797;28;20064;-80
2021/03/11 03:10:33;;;;;;;10.82;6.45;;;9.50;93.30;;;;;;5032818;28;20053;-81
2021/03/11 03:13:03;;;;;;;11.15;6.63;;;10.40;93.50;;;;;;5032081;28;20063;-82
2021/03/11 03:15:29;;;;;;;12.55;5.90;;;9.60;93.30;;;;;;5027282;28;20072;-80
2021/03/11 03:17:56;;;;;;;10.27;3.72;;;9.80;93.60;;;;;;5028627;28;20108;-81
2021/03/11 03:20:23;;;;;;;10.52;5.72;;;9.70;94.20;;;;;;5030306;28;20092;-81
2021/03/11 03:22:50;;;;;;;12.82;7.05;;;9.80;94.20;;;;;;5036940;28;20044;-81
2021/03/11 03:25:17;;;;;;;10.27;6.32;;;9.60;95.20;;;;;;5030593;28;20513;-81
2021/03/11 03:27:43;;;;;;;12.60;7.03;;;10.30;96.60;;;;;;5045768;28;20037;-83
2021/03/11 03:30:14;;;;;;;7.28;3.83;;;9.40;97.10;;;;;;5035517;28;20403;-79
2021/03/11 03:32:40;;;;;;;10.35;5.70;;;9.40;97.50;;;;;;5026814;28;20043;-80
2021/03/11 03:35:08;;;;;;;12.48;7.32;;;9.50;97.90;;;;;;5033561;28;20766;-80
2021/03/11 03:37:35;;;;;;;12.25;6.90;;;9.20;99.00;;;;;;5037423;28;20041;-81
2021/03/11 03:40:03;;;;;;;12.63;6.75;;;9.10;99.50;;;;;;5029200;28;20047;-82
2021/03/11 03:42:30;;;;;;;13.35;6.97;;;9.20;99.60;;;;;;5030394;28;20430;-81
2021/03/11 03:45:00;;;;;;;13.98;7.45;;;9.10;99.90;;;;;;5026964;28;20095;-81
2021/03/11 03:47:26;;;;;;;13.95;7.75;;;8.90;99.90;;;;;;5036871;28;20037;-80
2021/03/11 03:49:52;;;;;;;13.77;7.10;;;8.80;99.90;;;;;;5034104;28;20115;-81
2021/03/11 03:52:18;;;;;;;12.55;6.95;;;8.80;99.90;;;;;;5026556;28;20029;-81
2021/03/11 03:54:45;;;;;;;13.18;7.07;;;8.70;99.90;;;;;;5040678;28;20064;-82
2021/03/11 03:57:31;;;;;;;16.77;7.32;;;9.60;99.90;;;;;;5031224;28;20037;-83
2021/03/11 03:59:57;;;;;;;13.65;7.45;;;8.70;99.90;;;;;;5037806;28;22293;-81
2021/03/11 04:02:25;;;;;;;14.90;7.85;;;8.70;99.90;;;;;;5041315;28;20071;-80
2021/03/11 04:04:52;;;;;;;13.23;7.60;;;8.70;99.90;;;;;;5034142;28;20037;-82
2021/03/11 04:07:24;;;;;;;14.98;7.95;;;8.60;99.90;;;;;;5053597;28;20037;-79
2021/03/11 04:09:51;;;;;;;15.00;8.02;;;8.50;99.90;;;;;;5038655;28;20079;-83
2021/03/11 04:12:19;;;;;;;13.52;7.43;;;8.50;99.90;;;;;;5053180;28;20540;-81
2021/03/11 04:14:47;;;;;;;14.30;7.50;;;8.40;99.90;;;;;;5048985;28;20418;-82
2021/03/11 04:17:14;;;;;;;14.07;7.50;;;8.40;99.90;;;;;;5039167;28;20407;-82
2021/03/11 04:19:40;;;;;;;15.73;8.13;;;8.60;99.90;;;;;;5034376;28;20078;-83
2021/03/11 04:22:07;;;;;;;13.65;8.02;;;8.60;99.90;;;;;;5033720;28;20033;-81
2021/03/11 04:24:34;;;;;;;14.38;7.75;;;8.60;99.90;;;;;;5032361;28;20474;-83
2021/03/11 04:27:06;;;;;;;14.00;7.50;;;8.60;99.90;;;;;;5029838;28;20032;-81
2021/03/11 04:29:32;;;;;;;14.48;6.53;;;8.50;99.90;;;;;;5031774;28;20041;-82
2021/03/11 04:31:59;;;;;;;14.52;7.45;;;8.60;99.90;;;;;;5031368;28;20041;-82
2021/03/11 04:34:27;;;;;;;13.75;7.75;;;8.60;99.90;;;;;;5036343;28;20059;-80
2021/03/11 04:36:53;;;;;;;16.35;7.80;;;8.60;99.90;;;;;;5041524;28;20088;-80
2021/03/11 04:39:19;;;;;;;15.75;7.75;;;8.60;99.90;;;;;;5033810;28;20578;-83
2021/03/11 04:41:47;;;;;;;13.43;7.32;;;8.50;99.90;;;;;;5037415;28;20108;-80
2021/03/11 04:44:13;;;;;;;14.30;7.45;;;8.60;99.90;;;;;;5044630;28;20127;-81
2021/03/11 04:46:40;;;;;;;13.95;7.90;;;8.60;99.90;;;;;;5029476;28;20072;-81
2021/03/11 04:49:06;;;;;;;13.07;7.65;;;8.60;99.90;;;;;;5029420;28;20110;-80
2021/03/11 04:51:33;;;;;;;14.02;7.88;;;8.60;99.90;;;;;;5028544;28;20448;-81
2021/03/11 04:53:59;;;;;;;13.30;7.53;;;8.60;99.90;;;;;;5040516;28;20495;-81
2021/03/11 04:56:27;;;;;;;11.80;7.10;;;8.60;99.90;;;;;;5032739;28;20033;-81
2021/03/11 04:58:54;;;;;;;14.73;7.55;;;8.70;99.90;;;;;;5032000;28;20406;-82
2021/03/11 05:01:25;;;;;;;13.02;7.22;;;8.60;99.90;;;;;;5038406;28;20112;-80
2021/03/11 05:03:51;;;;;;;13.10;7.93;;;8.70;99.90;;;;;;5033362;28;20417;-83
2021/03/11 05:06:17;;;;;;;12.63;7.50;;;8.70;99.90;;;;;;5030191;28;20033;-79
2021/03/11 05:08:44;;;;;;;14.93;6.97;;;8.80;99.90;;;;;;5029649;28;20041;-77
2021/03/11 05:11:14;;;;;;;12.63;6.95;;;8.70;99.90;;;;;;5038690;28;20032;-81
2021/03/11 05:13:41;;;;;;;13.20;7.70;;;8.70;99.90;;;;;;5036909;28;20037;-84
2021/03/11 05:16:06;;;;;;;11.68;6.68;;;10.50;99.90;;;;;;5039788;28;20119;-80
2021/03/11 05:18:32;;;;;;;13.10;6.80;;;8.70;99.90;;;;;;5015568;28;20048;-82
2021/03/11 05:20:58;;;;;;;11.13;6.60;;;8.90;99.90;;;;;;5046075;28;20042;-81
2021/03/11 05:23:24;;;;;;;12.05;6.53;;;8.80;99.90;;;;;;5039199;28;20045;-81
2021/03/11 05:25:52;;;;;;;11.70;6.60;;;9.50;99.90;;;;;;5036325;28;20035;-81
2021/03/11 05:28:19;;;;;;;11.65;6.47;;;8.80;99.90;;;;;;5031096;28;20135;-83
2021/03/11 05:30:45;;;;;;;9.77;6.22;;;9.00;99.90;;;;;;5036293;28;20033;-81
2021/03/11 05:33:11;;;;;;;13.63;7.43;;;8.90;99.90;;;;;;5024106;28;20487;-80
2021/03/11 05:35:37;;;;;;;12.93;6.95;;;9.40;99.90;;;;;;5023981;28;20067;-79
2021/03/11 05:38:03;;;;;;;11.43;6.68;;;8.90;99.90;;;;;;5033317;28;20044;-80
2021/03/11 05:40:29;;;;;;;13.23;6.47;;;8.80;99.90;;;;;;5016343;28;20044;-82
2021/03/11 05:42:58;;;;;;;11.68;7.00;;;8.80;99.90;;;;;;5036470;28;20049;-82
2021/03/11 05:45:25;;;;;;;13.98;6.55;;;8.80;99.90;;;;;;5038901;28;20052;-81
2021/03/11 05:47:52;;;;;;;11.68;7.10;;;8.70;99.90;;;;;;5029659;28;20036;-83
2021/03/11 05:50:17;;;;;;;12.80;6.60;;;8.80;99.90;;;;;;5030856;28;20482;-82
2021/03/11 05:52:44;;;;;;;12.52;6.50;;;8.80;99.90;;;;;;5036568;28;20048;-80
2021/03/11 05:55:10;;;;;;;13.27;6.18;;;8.80;99.90;;;;;;5049141;28;20165;-79
2021/03/11 05:57:44;;;;;;;12.13;6.68;;;8.80;99.90;;;;;;5010097;28;20064;-80
2021/03/11 06:00:16;;;;;;;12.50;6.15;;;8.70;99.90;;;;;;5034669;28;20036;-80
2021/03/11 06:02:46;;;;;;;12.60;7.05;;;8.70;99.90;;;;;;5030234;28;20079;-83
2021/03/11 06:05:15;;;;;;;8.52;5.50;;;10.20;99.90;;;;;;5032366;28;20036;-80
2021/03/11 06:07:45;;;;;;;9.52;6.15;;;8.70;99.90;;;;;;5032170;28;20127;-80
2021/03/11 06:10:12;;;;;;;14.02;6.68;;;8.80;99.90;;;;;;5029511;28;20505;-80
2021/03/11 06:12:38;;;;;;;10.48;6.00;;;8.80;99.90;;;;;;5030096;28;20045;-80
2021/03/11 06:15:09;;;;;;;10.88;6.45;;;8.90;99.90;;;;;;5031014;28;20029;-79
2021/03/11 06:17:36;;;;;;;14.60;6.93;;;8.90;99.90;;;;;;5033911;28;20044;-79
2021/03/11 06:20:02;;;;;;;11.15;6.50;;;8.90;99.90;;;;;;5041732;28;20399;-79
2021/03/11 06:22:27;;;;;;;10.25;6.05;;;8.90;99.90;;;;;;5012338;28;20098;-79
2021/03/11 06:24:53;;;;;;;12.07;5.38;;;8.90;99.90;;;;;;5027265;28;20037;-79
2021/03/11 06:27:21;;;;;;;9.05;5.70;;;9.10;99.90;;;;;;5035954;28;20041;-83
2021/03/11 06:29:46;;;;;;;10.38;5.68;;;9.20;99.90;;;;;;5033004;28;20029;-81
2021/03/11 06:32:12;;;;;;;10.07;5.88;;;9.20;99.90;;;;;;5030635;28;20091;-84
2021/03/11 06:34:43;;;;;;;12.65;6.43;;;9.20;99.90;;;;;;5033526;28;20064;-83
2021/03/11 06:37:12;;;;;;;12.15;6.07;;;9.20;99.90;;;;;;5029809;28;20045;-82
2021/03/11 06:39:39;;;;;;;9.90;5.67;;;9.20;99.90;;;;;;5041057;28;21413;-81
2021/03/11 06:42:05;;;;;;;8.90;5.65;;;9.10;99.90;;;;;;5055634;28;20190;-80
2021/03/11 06:44:37;;;;;;;8.68;5.50;;;9.10;99.90;;;;;;5035843;28;20502;-84
2021/03/11 06:47:05;;;;;;;12.18;5.57;;;9.20;99.90;;;;;;5035512;28;20372;-81
2021/03/11 06:49:32;;;;;;;12.90;6.10;;;9.20;99.90;;;;;;5041727;28;20582;-81
2021/03/11 06:52:14;;;;;;;8.02;5.07;;;11.60;99.90;;;;;;5037009;28;20060;-83
2021/03/11 06:54:55;;;;;;;9.25;5.75;;;9.40;99.90;;;;;;5029999;28;20041;-79
2021/03/11 06:57:40;;;;;;;13.50;6.28;;;9.70;99.90;;;;;;5032701;28;20045;-83
2021/03/11 07:00:17;;;;;;;9.65;5.03;;;9.30;99.90;;;;;;5031463;28;20033;-81
2021/03/11 07:02:50;;;;;;;10.80;5.43;;;9.40;99.90;;;;;;5034455;28;20497;-80
2021/03/11 07:05:16;;;;;;;8.30;5.25;;;9.50;99.90;;;;;;5034646;28;20029;-79
2021/03/11 07:07:41;;;;;;;12.07;6.47;;;9.50;99.90;;;;;;5044524;28;20049;-81
2021/03/11 07:10:20;;;;;;;10.23;5.88;;;9.50;99.90;;;;;;5018003;28;20041;-80
2021/03/11 07:12:54;;;;;;;11.30;6.47;;;9.40;99.90;;;;;;5024811;28;20033;-82
2021/03/11 07:15:22;;;;;;;11.85;5.93;;;10.20;99.90;;;;;;5035197;28;20409;-82
2021/03/11 07:17:50;;;;;;;9.90;5.88;;;9.50;99.90;;;;;;5039752;28;20037;-81
2021/03/11 07:20:18;;;;;;;9.93;5.53;;;9.60;99.90;;;;;;5032573;28;20065;-80
2021/03/11 07:23:02;;;;;;;10.25;4.88;;;9.60;99.90;;;;;;5027459;28;20531;-80
2021/03/11 07:25:31;;;;;;;8.90;4.47;;;9.70;99.90;;;;;;5034435;28;20029;-80
2021/03/11 07:27:58;;;;;;;16.60;6.30;;;9.60;99.90;;;;;;5039893;28;20114;-82
2021/03/11 07:30:25;;;;;;;11.05;5.80;;;9.60;99.90;;;;;;5034115;28;20095;-79
2021/03/11 07:32:57;;;;;;;12.57;5.80;;;10.70;99.90;;;;;;5035485;28;20024;-79
2021/03/11 07:35:24;;;;;;;8.73;4.47;;;9.50;99.90;;;;;;5041188;28;20513;-81
2021/03/11 07:37:51;;;;;;;9.40;5.30;;;9.70;99.90;;;;;;5044242;28;20102;-79
2021/03/11 07:40:17;;;;;;;9.90;6.10;;;9.70;99.90;;;;;;5045704;28;20033;-82
2021/03/11 07:42:43;;;;;;;8.68;5.10;;;10.50;99.90;;;;;;5044737;28;20040;-80
2021/03/11 07:45:15;;;;;;;8.93;5.10;;;9.50;99.90;;;;;;5042217;28;21779;-83
2021/03/11 07:47:41;;;;;;;7.65;4.78;;;9.70;99.90;;;;;;5031675;28;20190;-79
2021/03/11 07:50:11;;;;;;;13.15;6.18;;;9.80;99.90;;;;;;5023741;28;20560;-80
2021/03/11 07:52:39;;;;;;;9.02;5.60;;;9.90;99.90;;;;;;5040711;28;20461;-80
2021/03/11 07:55:07;;;;;;;10.13;5.72;;;9.80;99.90;;;;;;5045243;28;20098;-80
2021/03/11 07:57:49;;;;;;;9.48;5.60;;;9.80;99.90;;;;;;5047752;28;20043;-80
2021/03/11 08:00:16;;;;;;;9.75;5.65;;;9.70;99.90;;;;;;5047571;28;20513;-82
2021/03/11 08:02:50;;;;;;;10.45;6.13;;;9.70;99.90;;;;;;5037823;28;20044;-79
2021/03/11 08:05:27;;;;;;;10.25;4.97;;;9.70;99.90;;;;;;5029683;28;20083;-81
2021/03/11 08:08:12;;;;;;;12.35;5.68;;;9.70;99.90;;;;;;5046200;28;20045;-81
2021/03/11 08:10:49;;;;;;;12.52;5.40;;;10.30;99.90;;;;;;5046605;28;20056;-81
2021/03/11 08:13:31;;;;;;;9.20;5.38;;;9.80;99.90;;;;;;5043313;28;20033;-82
2021/03/11 08:15:59;;;;;;;9.45;5.55;;;9.80;99.90;;;;;;5044860;28;20025;-79
2021/03/11 08:18:34;;;;;;;9.77;5.15;;;9.80;99.90;;;;;;5046155;28;20114;-80
2021/03/11 08:21:22;;;;;;;8.02;5.13;;;10.00;99.90;;;;;;5040384;28;20107;-80
2021/03/11 08:23:48;;;;;;;8.50;5.22;;;10.00;99.90;;;;;;5039143;28;20037;-81
2021/03/11 08:26:41;;;;;;;8.65;4.80;;;10.10;99.90;;;;;;5046556;28;20106;-81
2021/03/11 08:29:18;;;;;;;11.00;5.05;;;10.10;99.90;;;;;;5036912;28;20090;-79
2021/03/11 08:31:48;;;;;;;6.95;5.05;;;10.10;99.90;;;;;;5044860;28;20036;-79
2021/03/11 08:34:36;;;;;;;10.20;5.00;;;10.00;99.90;;;;;;5034542;28;20041;-79
2021/03/11 08:37:22;;;;;;;9.40;5.30;;;10.00;99.90;;;;;;5034383;28;20509;-84
2021/03/11 08:39:49;;;;;;;8.55;5.35;;;10.00;99.90;;;;;;5034974;28;20074;-84
2021/03/11 08:42:48;;;;;;;8.95;4.82;;;10.10;99.90;;;;;;5034464;28;20045;-80
2021/03/11 08:45:36;;;;;;;8.18;5.35;;;10.00;99.90;;;;;;5025960;28;20037;-80
2021/03/11 08:48:22;;;;;;;7.70;5.43;;;9.90;99.90;;;;;;5035110;28;20140;-82
2021/03/11 08:50:53;;;;;;;9.10;5.53;;;10.00;99.90;;;;;;5029685;28;20541;-80
2021/03/11 08:53:50;;;;;;;8.63;4.75;;;10.00;99.90;;;;;;5030201;28;20044;-80
2021/03/11 08:56:19;;;;;;;9.55;5.20;;;11.40;99.90;;;;;;5015484;28;20149;-79
2021/03/11 08:59:03;;;;;;;9.45;5.05;;;9.90;99.90;;;;;;5029788;28;20201;-80
2021/03/11 09:01:31;;;;;;;9.35;6.05;;;9.90;99.90;;;;;;5032564;28;20095;-80
2021/03/11 09:04:05;;;;;;;9.15;5.00;;;9.80;99.90;;;;;;5035396;28;20041;-81
2021/03/11 09:06:54;;;;;;;9.13;4.82;;;9.80;99.90;;;;;;5039098;28;20045;-81
2021/03/11 09:09:45;;;;;;;11.00;6.75;;;7.60;99.90;;;;;;5028029;28;20413;-80
2021/03/11 09:12:13;;;;;;;9.63;5.80;;;9.90;99.90;;;;;;5031771;28;20042;-77
2021/03/11 09:14:41;;;;;;;8.15;5.15;;;9.80;99.90;;;;;;5024815;28;20490;-80
2021/03/11 09:17:15;;;;;;;8.35;5.20;;;9.90;99.90;;;;;;5046146;28;20045;-81
2021/03/11 09:19:46;;;;;;;9.90;6.10;;;9.90;99.90;;;;;;5043640;28;20043;-78
2021/03/11 09:22:22;;;;;;;10.15;5.40;;;9.90;99.90;;;;;;5031884;28;20108;-78
2021/03/11 09:24:57;;;;;;;11.23;5.97;;;9.90;99.90;;;;;;5045580;28;20040;-84
2021/03/11 09:27:28;;;;;;;9.85;5.68;;;9.90;99.90;;;;;;5037755;28;20094;-78
2021/03/11 09:29:55;;;;;;;11.75;5.97;;;10.00;99.90;;;;;;5036155;28;20032;-82
2021/03/11 09:32:30;;;;;;;8.35;6.13;;;10.00;99.90;;;;;;5043154;28;20029;-80
2021/03/11 09:35:01;;;;;;;11.57;6.10;;;9.90;99.90;;;;;;5044428;28;20055;-84
2021/03/11 09:37:57;;;;;;;8.05;5.60;;;9.90;99.90;;;;;;5035290;28;20071;-83
2021/03/11 09:40:28;;;;;;;9.48;6.13;;;9.80;99.90;;;;;;5035653;28;20573;-80
2021/03/11 09:43:14;;;;;;;9.77;5.57;;;9.90;99.90;;;;;;5040698;28;20029;-85
2021/03/11 09:45:49;;;;;;;11.85;6.07;;;9.90;99.90;;;;;;5034174;28;20041;-80
2021/03/11 09:48:26;;;;;;;8.23;6.10;;;9.90;99.90;;;;;;5042270;28;20045;-81
2021/03/11 09:50:57;;;;;;;9.60;5.75;;;9.90;99.90;;;;;;5036123;28;20164;-79
2021/03/11 09:53:30;;;;;;;7.30;5.28;;;12.40;99.90;;;;;;5030763;28;20070;-81
2021/03/11 09:55:55;;;;;;;10.07;5.40;;;10.00;99.90;;;;;;5031652;28;20095;-84
2021/03/11 09:58:21;;;;;;;9.65;5.38;;;10.00;99.90;;;;;;5029569;28;20702;-79
2021/03/11 10:00:49;;;;;;;9.38;5.40;;;10.10;99.90;;;;;;5034779;28;20412;-81
2021/03/11 10:03:18;;;;;;;8.57;5.45;;;10.20;99.90;;;;;;5030884;28;20143;-81
2021/03/11 10:05:45;;;;;;;9.00;4.95;;;10.30;99.90;;;;;;5033188;28;20414;-83
2021/03/11 10:08:35;;;;;;;8.00;4.97;;;10.60;99.90;;;;;;5038094;28;20044;-85
2021/03/11 10:11:06;;;;;;;12.57;5.95;;;10.30;99.90;;;;;;5032786;28;20362;-83
2021/03/11 10:13:37;;;;;;;8.60;5.53;;;10.20;99.90;;;;;;5034189;28;20060;-83
2021/03/11 10:16:03;;;;;;;8.85;5.65;;;10.20;99.90;;;;;;5040301;28;20040;-83
2021/03/11 10:18:29;;;;;;;8.95;5.60;;;10.20;99.90;;;;;;5037526;28;20290;-82
2021/03/11 10:21:07;;;;;;;12.57;5.97;;;12.10;99.90;;;;;;5048839;28;20045;-83
2021/03/11 10:23:34;;;;;;;9.48;6.38;;;10.20;99.90;;;;;;5030685;28;20036;-82
2021/03/11 10:26:21;;;;;;;10.88;5.80;;;10.00;99.90;;;;;;5033128;28;20029;-82
2021/03/11 10:28:51;;;;;;;10.93;6.53;;;10.20;99.90;;;;;;5029524;28;20052;-81
2021/03/11 10:31:17;;;;;;;8.77;5.35;;;10.10;99.90;;;;;;5037711;28;20029;-81
2021/03/11 10:33:44;;;;;;;11.27;6.57;;;10.30;99.90;;;;;;5036222;28;20037;-82
2021/03/11 10:36:17;;;;;;;7.82;5.57;;;10.30;99.90;;;;;;5038259;28;20330;-82
2021/03/11 10:39:00;;;;;;;10.48;5.00;;;10.30;99.90;;;;;;5041085;28;20029;-81
2021/03/11 10:41:26;;;;;;;10.60;5.65;;;10.40;99.90;;;;;;5042712;28;20493;-82
2021/03/11 10:44:11;;;;;;;8.23;4.43;;;11.90;99.90;;;;;;5037157;28;20053;-81
2021/03/11 10:46:38;;;;;;;8.30;4.38;;;10.70;99.90;;;;;;5043938;28;20560;-82
2021/03/11 10:49:04;;;;;;;7.40;4.93;;;10.80;99.90;;;;;;5039103;28;20537;-83
2021/03/11 10:51:32;;;;;;;7.07;4.60;;;10.80;99.90;;;;;;5040417;28;20142;-84
2021/03/11 10:54:00;;;;;;;6.55;4.80;;;10.50;99.90;;;;;;5019292;28;20069;-84
2021/03/11 10:56:27;;;;;;;6.68;4.80;;;10.60;99.90;;;;;;5032014;28;20044;-81
2021/03/11 10:59:05;;;;;;;6.88;4.90;;;11.80;99.90;;;;;;5034848;28;20041;-81
2021/03/11 11:01:31;;;;;;;5.63;4.03;;;10.50;99.90;;;;;;5037834;28;20041;-82
2021/03/11 11:03:59;;;;;;;5.57;3.50;;;11.40;99.90;;;;;;5037001;28;20037;-83
2021/03/11 11:06:25;;;;;;;9.30;4.50;;;11.70;99.90;;;;;;5033993;28;20044;-83
2021/03/11 11:08:51;;;;;;;8.85;4.70;;;10.70;99.90;;;;;;5035183;28;21415;-80
2021/03/11 11:11:19;;;;;;;6.47;4.35;;;11.40;99.90;;;;;;5034660;28;20071;-81
2021/03/11 11:13:45;;;;;;;6.28;4.43;;;10.60;99.90;;;;;;5036506;28;20041;-79
2021/03/11 11:16:11;;;;;;;6.93;4.95;;;10.60;99.90;;;;;;5036014;28;20037;-83
2021/03/11 11:18:37;;;;;;;7.63;4.72;;;10.60;99.90;;;;;;5038425;28;20028;-82
2021/03/11 11:21:04;;;;;;;6.97;4.82;;;13.60;99.90;;;;;;5040624;28;20045;-83
2021/03/11 11:23:31;;;;;;;7.03;3.88;;;10.90;99.90;;;;;;5015479;28;20044;-82
2021/03/11 11:25:56;;;;;;;7.55;5.32;;;10.80;99.90;;;;;;5047902;28;20064;-81
2021/03/11 11:28:25;;;;;;;8.32;4.82;;;10.90;99.90;;;;;;5037307;28;20067;-82
2021/03/11 11:30:51;;;;;;;7.20;4.20;;;11.80;99.90;;;;;;5036526;28;20056;-80
2021/03/11 11:33:17;;;;;;;6.05;4.25;;;10.90;99.90;;;;;;5038274;28;20056;-85
2021/03/11 11:35:43;;;;;;;6.18;3.97;;;11.00;99.90;;;;;;5020280;28;20061;-82
2021/03/11 11:38:09;;;;;;;5.53;4.05;;;11.20;99.90;;;;;;5038522;28;20033;-81
2021/03/11 11:40:34;;;;;;;5.15;3.58;;;11.00;99.90;;;;;;5041942;28;20037;-80
2021/03/11 11:43:01;;;;;;;4.18;3.08;;;13.50;99.90;;;;;;5036514;28;20037;-82
2021/03/11 11:45:30;;;;;;;7.88;3.45;;;11.80;99.90;;;;;;5038901;28;20043;-83
2021/03/11 11:47:56;;;;;;;5.45;3.45;;;11.90;99.90;;;;;;5051601;28;20040;-82
2021/03/11 11:50:23;;;;;;;6.07;3.22;;;13.10;99.90;;;;;;5036548;28;20033;-83
2021/03/11 11:52:49;;;;;;;7.45;3.80;;;11.90;99.90;;;;;;5030758;28;20082;-83
2021/03/11 11:55:15;;;;;;;4.85;3.10;;;11.80;99.90;;;;;;5032868;28;20340;-80
2021/03/11 11:57:41;;;;;;;6.50;2.78;;;11.90;99.90;;;;;;5015352;28;20118;-77
2021/03/11 12:00:13;;;;;;;3.90;2.60;;;11.90;99.90;;;;;;5039078;28;20045;-83
2021/03/11 12:02:39;;;;;;;4.15;2.67;;;12.00;99.90;;;;;;5034260;28;20505;-82
2021/03/11 12:05:06;;;;;;;7.75;2.60;;;11.90;99.90;;;;;;5027254;28;20140;-81
2021/03/11 12:07:32;;;;;;;4.05;2.30;;;12.00;99.90;;;;;;5030206;28;20567;-79
2021/03/11 12:09:58;;;;;;;3.30;2.28;;;11.90;99.90;;;;;;5014184;28;20045;-79
2021/03/11 12:12:24;;;;;;;6.05;2.63;;;11.80;99.90;;;;;;5027020;28;20068;-78
2021/03/11 12:14:50;;;;;;;5.15;2.33;;;11.80;99.90;;;;;;5032233;28;20673;-84
2021/03/11 12:17:17;;;;;;;6.50;2.50;;;13.60;99.90;;;;;;5037369;28;20036;-80
2021/03/11 12:19:42;;;;;;;5.35;2.15;;;11.90;99.90;;;;;;5017815;28;20076;-82
2021/03/11 12:22:08;;;;;;;5.38;2.45;;;11.80;99.90;;;;;;5034074;28;20097;-81
2021/03/11 12:24:33;;;;;;;3.92;2.15;;;13.30;99.90;;;;;;5016804;28;20446;-81
2021/03/11 12:27:00;;;;;;;6.97;2.35;;;13.30;99.90;;;;;;5035679;28;21389;-83
2021/03/11 12:29:26;;;;;;;9.77;4.22;;;14.50;99.90;;;;;;5040911;28;20037;-81
2021/03/11 12:31:52;;;;;;;4.85;2.83;;;11.40;99.90;;;;;;5038702;28;20041;-77
2021/03/11 12:34:18;;;;;;;5.30;2.20;;;11.40;99.90;;;;;;5044685;28;20045;-79
2021/03/11 12:36:45;;;;;;;6.53;2.50;;;11.40;99.90;;;;;;5025987;28;20801;-80
2021/03/11 12:39:11;;;;;;;5.63;1.88;;;11.40;99.90;;;;;;5032065;28;20037;-79
2021/03/11 12:41:37;;;;;;;6.07;1.80;;;11.40;99.90;;;;;;5043888;28;20510;-80
2021/03/11 12:44:03;;;;;;;5.18;1.52;;;11.40;99.90;;;;;;5060072;28;20091;-80
2021/03/11 12:46:29;;;;;;;6.32;1.75;;;11.40;99.90;;;;;;5046717;28;20164;-80
2021/03/11 12:48:56;;;;;;;4.80;1.60;;;11.60;99.90;;;;;;5041312;28;20561;-80
2021/03/11 12:51:22;;;;;;;6.85;1.48;;;11.50;99.90;;;;;;5042112;28;21195;-79
2021/03/11 12:53:48;;;;;;;7.80;1.70;;;11.60;99.90;;;;;;5039881;28;20045;-79
2021/03/11 12:56:14;;;;;;;4.70;1.48;;;11.70;99.90;;;;;;5049033;28;20084;-76
2021/03/11 12:58:40;;;;;;;4.95;1.60;;;13.80;99.90;;;;;;5041095;28;20168;-80